createdAt,value
2017-11-17T00:01:26.733Z,101559
2017-11-17T00:03:54.855Z,101569
2017-11-17T00:06:22.982Z,101579
2017-11-17T00:08:51.555Z,101575
2017-11-17T00:11:19.682Z,101570
2017-11-17T00:13:47.803Z,101576
2017-11-17T00:16:15.918Z,101585
2017-11-17T00:18:44.492Z,101588
2017-11-17T00:21:13.350Z,101586
2017-11-17T00:23:41.456Z,101591
2017-11-17T00:26:10.318Z,101589
2017-11-17T00:28:38.462Z,101589
2017-11-17T00:31:06.594Z,101596
2017-11-17T00:33:34.699Z,101594
2017-11-17T00:36:03.250Z,101599
2017-11-17T00:38:32.105Z,101600
2017-11-17T00:41:00.233Z,101600
2017-11-17T00:43:28.361Z,101607
2017-11-17T00:45:56.483Z,101609
2017-11-17T00:48:24.587Z,101615
2017-11-17T00:50:53.068Z,101622
2017-11-17T00:53:21.239Z,101628
2017-11-17T00:55:49.347Z,101622
2017-11-17T00:58:17.452Z,101624
2017-11-17T01:00:46.008Z,101621
2017-11-17T01:03:14.871Z,101634
2017-11-17T01:05:42.999Z,101629
2017-11-17T01:08:11.099Z,101634
2017-11-17T01:10:39.211Z,101639
2017-11-17T01:13:07.317Z,101639
2017-11-17T01:15:35.429Z,101648
2017-11-17T01:18:03.938Z,101646
2017-11-17T01:20:32.791Z,101643
2017-11-17T01:23:00.902Z,101657
2017-11-17T01:25:29.750Z,101658
2017-11-17T01:27:57.859Z,101659
2017-11-17T01:30:25.995Z,101653
2017-11-17T01:32:54.134Z,101657
2017-11-17T01:35:22.282Z,101664
2017-11-17T01:37:50.414Z,101660
2017-11-17T01:40:18.818Z,101659
2017-11-17T01:42:46.938Z,101668
2017-11-17T01:45:15.110Z,101665
2017-11-17T01:47:43.250Z,101668
2017-11-17T01:50:11.387Z,101671
2017-11-17T01:52:39.662Z,101671
2017-11-17T01:55:07.805Z,101677
2017-11-17T01:57:36.729Z,101673
2017-11-17T02:00:04.890Z,101674
2017-11-17T02:02:33.030Z,101682
2017-11-17T02:05:01.244Z,101674
2017-11-17T02:07:29.439Z,101681
2017-11-17T02:09:57.571Z,101690
2017-11-17T02:12:25.695Z,101687
2017-11-17T02:14:55.347Z,101688
2017-11-17T02:17:23.564Z,101683
2017-11-17T02:19:52.172Z,101684
2017-11-17T02:22:21.127Z,101685
2017-11-17T02:24:49.330Z,101691
2017-11-17T02:27:17.512Z,101693
2017-11-17T02:29:45.727Z,101693
2017-11-17T02:32:14.207Z,101690
2017-11-17T02:34:42.438Z,101686
2017-11-17T02:37:10.665Z,101696
2017-11-17T02:39:39.954Z,101683
2017-11-17T02:42:08.142Z,101698
2017-11-17T02:44:36.354Z,101699
2017-11-17T02:47:05.397Z,101701
2017-11-17T02:49:33.666Z,101696
2017-11-17T02:52:02.618Z,101705
2017-11-17T02:54:31.330Z,101709
2017-11-17T02:56:59.576Z,101697
2017-11-17T02:59:27.786Z,101715
2017-11-17T03:01:56.307Z,101705
2017-11-17T03:04:24.471Z,101702
2017-11-17T03:06:52.776Z,101701
2017-11-17T03:09:20.926Z,101709
2017-11-17T03:11:49.074Z,101713
2017-11-17T03:14:17.222Z,101721
2017-11-17T03:16:45.346Z,101715
2017-11-17T03:19:13.490Z,101709
2017-11-17T03:21:41.686Z,101728
2017-11-17T03:24:09.839Z,101725
2017-11-17T03:26:38.348Z,101729
2017-11-17T03:29:06.584Z,101734
2017-11-17T03:31:35.639Z,101735
2017-11-17T03:34:03.807Z,101734
2017-11-17T03:36:32.041Z,101732
2017-11-17T03:39:00.185Z,101748
2017-11-17T03:41:28.538Z,101752
2017-11-17T03:43:56.680Z,101735
2017-11-17T03:46:25.006Z,101752
2017-11-17T03:48:53.159Z,101748
2017-11-17T03:51:21.724Z,101740
2017-11-17T03:53:49.870Z,101744
2017-11-17T03:56:18.831Z,101741
2017-11-17T03:58:46.983Z,101727
2017-11-17T04:01:15.149Z,101756
2017-11-17T04:03:43.329Z,101758
2017-11-17T04:06:11.466Z,101762
2017-11-17T04:08:40.350Z,101759
2017-11-17T04:11:09.235Z,101751
2017-11-17T04:13:38.127Z,101767
2017-11-17T04:16:06.715Z,101763
2017-11-17T04:18:34.886Z,101775
2017-11-17T04:21:03.024Z,101773
2017-11-17T04:23:31.170Z,101778
2017-11-17T04:25:59.549Z,101769
2017-11-17T04:28:27.713Z,101781
2017-11-17T04:30:56.607Z,101783
2017-11-17T04:33:25.490Z,101800
2017-11-17T04:35:54.413Z,101785
2017-11-17T04:38:22.611Z,101784
2017-11-17T04:40:51.046Z,101788
2017-11-17T04:43:19.214Z,101785
2017-11-17T04:45:48.095Z,101786
2017-11-17T04:48:17.002Z,101788
2017-11-17T04:50:45.882Z,101787
2017-11-17T04:53:14.750Z,101792
2017-11-17T04:55:42.887Z,101794
2017-11-17T04:58:11.573Z,101796
2017-11-17T05:00:39.730Z,101791
2017-11-17T05:03:07.903Z,101800
2017-11-17T05:05:36.042Z,101798
2017-11-17T05:08:04.260Z,101793
2017-11-17T05:10:32.398Z,101793
2017-11-17T05:13:00.575Z,101798
2017-11-17T05:15:29.462Z,101799
2017-11-17T05:17:57.978Z,101787
2017-11-17T05:20:26.114Z,101794
2017-11-17T05:22:54.454Z,101799
2017-11-17T05:25:23.323Z,101806
2017-11-17T05:27:51.466Z,101803
2017-11-17T05:30:20.346Z,101804
2017-11-17T05:32:48.494Z,101808
2017-11-17T05:35:16.614Z,101816
2017-11-17T05:37:44.718Z,101811
2017-11-17T05:40:13.126Z,101817
2017-11-17T05:42:41.234Z,101816
2017-11-17T05:45:09.391Z,101810
2017-11-17T05:47:37.518Z,101804
2017-11-17T05:50:05.636Z,101810
2017-11-17T05:52:33.759Z,101812
2017-11-17T05:55:01.875Z,101813
2017-11-17T05:57:30.238Z,101817
2017-11-17T05:59:58.698Z,101815
2017-11-17T06:02:26.809Z,101821
2017-11-17T06:04:55.413Z,101817
2017-11-17T06:07:23.518Z,101819
2017-11-17T06:09:51.666Z,101822
2017-11-17T06:12:19.834Z,101834
2017-11-17T06:14:48.678Z,101823
2017-11-17T06:17:16.786Z,101830
2017-11-17T06:19:45.107Z,101812
2017-11-17T06:22:13.213Z,101827
2017-11-17T06:24:41.373Z,101836
2017-11-17T06:27:09.490Z,101835
2017-11-17T06:29:38.420Z,101844
2017-11-17T06:32:06.863Z,101845
2017-11-17T06:34:35.744Z,101853
2017-11-17T06:37:04.078Z,101848
2017-11-17T06:39:32.262Z,101853
2017-11-17T06:42:00.379Z,101852
2017-11-17T06:44:28.498Z,101858
2017-11-17T06:46:56.634Z,101851
2017-11-17T06:49:24.756Z,101856
2017-11-17T06:51:52.876Z,101862
2017-11-17T06:54:21.781Z,101859
2017-11-17T06:56:51.061Z,101864
2017-11-17T06:59:19.401Z,101877
2017-11-17T07:01:47.883Z,101871
2017-11-17T07:04:16.009Z,101870
2017-11-17T07:06:44.117Z,101874
2017-11-17T07:09:12.266Z,101875
2017-11-17T07:11:41.244Z,101872
2017-11-17T07:14:09.370Z,101877
2017-11-17T07:16:37.486Z,101884
2017-11-17T07:19:06.371Z,101893
2017-11-17T07:21:36.044Z,101893
2017-11-17T07:24:04.195Z,101896
2017-11-17T07:26:32.322Z,101904
2017-11-17T07:29:01.187Z,101902
2017-11-17T07:31:29.335Z,101897
2017-11-17T07:33:57.458Z,101909
2017-11-17T07:36:25.604Z,101902
2017-11-17T07:38:54.462Z,101907
2017-11-17T07:41:22.582Z,101917
2017-11-17T07:43:50.988Z,101921
2017-11-17T07:46:19.910Z,101908
2017-11-17T07:48:48.022Z,101919
2017-11-17T07:51:16.138Z,101923
2017-11-17T07:53:44.242Z,101915
2017-11-17T07:56:12.342Z,101923
2017-11-17T07:58:40.462Z,101921
2017-11-17T08:01:08.590Z,101921
2017-11-17T08:03:36.970Z,101911
2017-11-17T08:06:05.140Z,101919
2017-11-17T08:08:33.767Z,101918
2017-11-17T08:11:02.650Z,101923
2017-11-17T08:13:31.507Z,101931
2017-11-17T08:15:59.630Z,101936
2017-11-17T08:18:39.570Z,101923
2017-11-17T08:21:08.543Z,101921
2017-11-17T08:23:36.667Z,101933
2017-11-17T08:26:05.223Z,101941
2017-11-17T08:28:33.362Z,101942
2017-11-17T08:31:01.489Z,101937
2017-11-17T08:33:29.614Z,101940
2017-11-17T08:35:57.738Z,101939
2017-11-17T08:38:25.906Z,101937
2017-11-17T08:40:54.022Z,101937
2017-11-17T08:43:22.166Z,101949
2017-11-17T08:45:50.298Z,101949
2017-11-17T08:48:18.426Z,101959
2017-11-17T08:50:46.991Z,101952
2017-11-17T08:53:15.126Z,101966
2017-11-17T08:55:43.326Z,101962
2017-11-17T08:58:11.470Z,101958
2017-11-17T09:00:39.710Z,101963
2017-11-17T09:03:07.848Z,101951
2017-11-17T09:05:36.186Z,101963
2017-11-17T09:08:04.437Z,101951
2017-11-17T09:10:32.558Z,101958
2017-11-17T09:13:01.605Z,101964
2017-11-17T09:15:30.153Z,101956
2017-11-17T09:17:58.290Z,101969
2017-11-17T09:20:26.419Z,101953
2017-11-17T09:22:55.087Z,101956
2017-11-17T09:25:23.215Z,101964
2017-11-17T09:27:51.336Z,101967
2017-11-17T09:30:19.599Z,101961
2017-11-17T09:32:48.463Z,101975
2017-11-17T09:35:16.635Z,101964
2017-11-17T09:37:46.048Z,101976
2017-11-17T09:40:14.574Z,101975
2017-11-17T09:42:42.719Z,101966
2017-11-17T09:45:10.897Z,101970
2017-11-17T09:47:39.784Z,101964
2017-11-17T09:50:08.726Z,101971
2017-11-17T09:52:36.860Z,101974
2017-11-17T09:55:05.051Z,101971
2017-11-17T09:57:33.533Z,101971
2017-11-17T10:00:01.691Z,101971
2017-11-17T10:02:29.822Z,101960
2017-11-17T10:04:58.010Z,101971
2017-11-17T10:07:26.403Z,101973
2017-11-17T10:09:54.558Z,101982
2017-11-17T10:12:22.727Z,101985
2017-11-17T10:14:51.186Z,101978
2017-11-17T10:17:19.723Z,101973
2017-11-17T10:19:48.988Z,101972
2017-11-17T10:22:17.200Z,101974
2017-11-17T10:24:45.325Z,101982
2017-11-17T10:27:13.455Z,101976
2017-11-17T10:29:42.342Z,101972
2017-11-17T10:32:11.230Z,101982
2017-11-17T10:34:40.117Z,101974
2017-11-17T10:37:09.057Z,101969
2017-11-17T10:39:37.266Z,101971
2017-11-17T10:42:05.427Z,101972
2017-11-17T10:44:34.098Z,101969
2017-11-17T10:47:02.235Z,101976
2017-11-17T10:49:30.407Z,101971
2017-11-17T10:51:58.729Z,101971
2017-11-17T10:54:26.902Z,101975
2017-11-17T10:56:56.933Z,101968
2017-11-17T10:59:25.134Z,101968
2017-11-17T11:01:54.046Z,101963
2017-11-17T11:04:22.538Z,101970
2017-11-17T11:06:50.703Z,101969
2017-11-17T11:09:19.074Z,101973
2017-11-17T11:11:54.045Z,101980
2017-11-17T11:14:22.719Z,101974
2017-11-17T11:16:50.871Z,101971
2017-11-17T11:19:19.778Z,101971
2017-11-17T11:21:47.915Z,101964
2017-11-17T11:24:16.389Z,101964
2017-11-17T11:26:44.551Z,101962
2017-11-17T11:29:12.695Z,101985
2017-11-17T11:31:40.847Z,101959
2017-11-17T11:34:08.999Z,101964
2017-11-17T11:36:37.940Z,101971
2017-11-17T11:39:06.145Z,101962
2017-11-17T11:41:34.310Z,101968
2017-11-17T11:44:02.466Z,101976
2017-11-17T11:46:30.998Z,101970
2017-11-17T11:48:59.854Z,101963
2017-11-17T11:51:27.963Z,101970
2017-11-17T11:53:56.815Z,101961
2017-11-17T11:56:24.958Z,101970
2017-11-17T11:58:53.104Z,101963
2017-11-17T12:01:21.240Z,101975
2017-11-17T12:03:49.369Z,101962
2017-11-17T12:06:17.526Z,101970
2017-11-17T12:08:45.686Z,101967
2017-11-17T12:11:14.856Z,101958
2017-11-17T12:13:43.474Z,101964
2017-11-17T12:16:12.347Z,101947
2017-11-17T12:18:40.466Z,101954
2017-11-17T12:21:08.598Z,101949
2017-11-17T12:23:36.711Z,101957
2017-11-17T12:26:04.873Z,101959
2017-11-17T12:28:33.015Z,101960
2017-11-17T12:31:01.139Z,101949
2017-11-17T12:33:29.270Z,101957
2017-11-17T12:35:57.799Z,101951
2017-11-17T12:38:25.983Z,101950
2017-11-17T12:40:54.102Z,101947
2017-11-17T12:43:22.987Z,101943
2017-11-17T12:45:51.156Z,101936
2017-11-17T12:48:19.275Z,101931
2017-11-17T12:50:47.416Z,101924
2017-11-17T12:53:16.298Z,101916
2017-11-17T12:55:45.150Z,101919
2017-11-17T12:58:13.262Z,101924
2017-11-17T13:00:41.678Z,101915
2017-11-17T13:03:09.831Z,101907
2017-11-17T13:05:38.706Z,101918
2017-11-17T13:08:06.875Z,101914
2017-11-17T13:10:34.984Z,101904
2017-11-17T13:13:03.171Z,101911
2017-11-17T13:15:31.294Z,101913
2017-11-17T13:17:59.603Z,101916
2017-11-17T13:20:27.746Z,101914
2017-11-17T13:22:56.272Z,101912
2017-11-17T13:25:24.398Z,101904
2017-11-17T13:27:52.550Z,101900
2017-11-17T13:30:20.678Z,101893
2017-11-17T13:32:48.822Z,101894
2017-11-17T13:35:16.959Z,101892
2017-11-17T13:37:45.107Z,101899
2017-11-17T13:40:13.238Z,101880
2017-11-17T13:42:41.378Z,101881
2017-11-17T13:45:09.514Z,101879
2017-11-17T13:47:38.822Z,101870
2017-11-17T13:50:07.947Z,101874
2017-11-17T13:52:36.062Z,101871
2017-11-17T13:55:04.982Z,101870
2017-11-17T13:57:33.090Z,101873
2017-11-17T14:00:01.322Z,101874
2017-11-17T14:02:29.745Z,101869
2017-11-17T14:04:57.871Z,101870
2017-11-17T14:07:25.991Z,101864
2017-11-17T14:09:54.274Z,101878
2017-11-17T14:12:22.382Z,101869
2017-11-17T14:14:51.653Z,101875
2017-11-17T14:17:19.803Z,101873
2017-11-17T14:19:47.937Z,101870
2017-11-17T14:22:17.166Z,101880
2017-11-17T14:24:45.290Z,101871
2017-11-17T14:27:13.411Z,101858
2017-11-17T14:29:41.567Z,101864
2017-11-17T14:32:10.526Z,101870
2017-11-17T14:34:38.727Z,101865
2017-11-17T14:37:06.901Z,101859
2017-11-17T14:39:35.019Z,101852
2017-11-17T14:42:03.210Z,101856
2017-11-17T14:44:31.342Z,101857
2017-11-17T14:46:59.922Z,101861
2017-11-17T14:49:28.850Z,101853
2017-11-17T14:51:56.999Z,101842
2017-11-17T14:54:25.118Z,101852
2017-11-17T14:56:53.261Z,101853
2017-11-17T14:59:21.432Z,101847
2017-11-17T15:01:49.661Z,101854
2017-11-17T15:04:17.787Z,101843
2017-11-17T15:06:45.907Z,101845
2017-11-17T15:09:14.512Z,101851
2017-11-17T15:11:42.639Z,101843
2017-11-17T15:14:10.794Z,101842
2017-11-17T15:16:39.297Z,101834
2017-11-17T15:19:07.466Z,101835
2017-11-17T15:21:35.717Z,101836
2017-11-17T15:24:03.914Z,101838
2017-11-17T15:26:32.142Z,101832
2017-11-17T15:29:02.515Z,101831
2017-11-17T15:31:30.686Z,101831
2017-11-17T15:33:58.818Z,101822
2017-11-17T15:36:27.718Z,101810
2017-11-17T15:38:55.873Z,101830
2017-11-17T15:41:24.015Z,101830
2017-11-17T15:43:52.277Z,101820
2017-11-17T15:46:20.401Z,101813
2017-11-17T15:48:49.362Z,101813
2017-11-17T15:51:17.806Z,101820
2017-11-17T15:53:46.005Z,101813
2017-11-17T15:56:14.140Z,101814
2017-11-17T15:58:42.326Z,101821
2017-11-17T16:01:11.099Z,101820
2017-11-17T16:03:39.328Z,101817
2017-11-17T16:06:07.531Z,101816
2017-11-17T16:08:36.139Z,101815
2017-11-17T16:11:04.331Z,101819
2017-11-17T16:13:32.500Z,101814
2017-11-17T16:16:00.666Z,101813
2017-11-17T16:18:29.118Z,101816
2017-11-17T16:20:57.311Z,101816
2017-11-17T16:23:26.203Z,101820
2017-11-17T16:25:54.376Z,101811
2017-11-17T16:28:22.990Z,101806
2017-11-17T16:30:51.294Z,101819
2017-11-17T16:33:19.467Z,101819
2017-11-17T16:35:47.674Z,101810
2017-11-17T16:38:15.830Z,101809
2017-11-17T16:40:44.082Z,101816
2017-11-17T16:43:14.262Z,101807
2017-11-17T16:45:42.508Z,101806
2017-11-17T16:48:10.747Z,101814
2017-11-17T16:50:38.950Z,101813
2017-11-17T16:53:07.150Z,101805
2017-11-17T16:55:35.343Z,101803
2017-11-17T16:58:03.510Z,101792
2017-11-17T17:00:31.784Z,101793
2017-11-17T17:03:00.004Z,101801
2017-11-17T17:05:28.175Z,101794
2017-11-17T17:07:56.733Z,101808
2017-11-17T17:10:24.970Z,101795
2017-11-17T17:12:53.166Z,101789
2017-11-17T17:15:21.354Z,101788
2017-11-17T17:17:49.526Z,101786
2017-11-17T17:20:17.993Z,101792
2017-11-17T17:22:46.917Z,101780
2017-11-17T17:25:15.099Z,101788
2017-11-17T17:27:43.605Z,101794
2017-11-17T17:30:12.289Z,101784
2017-11-17T17:32:40.439Z,101780
2017-11-17T17:35:08.594Z,101789
2017-11-17T17:37:36.739Z,101785
2017-11-17T17:40:04.868Z,101792
2017-11-17T17:42:32.987Z,101802
2017-11-17T17:45:01.886Z,101789
2017-11-17T17:47:30.770Z,101775
2017-11-17T17:50:30.843Z,101773
2017-11-17T17:52:59.014Z,101778
2017-11-17T17:55:27.506Z,101777
2017-11-17T17:57:55.638Z,101775
2017-11-17T18:00:24.634Z,101773
2017-11-17T18:02:52.851Z,101763
2017-11-17T18:05:21.044Z,101767
2017-11-17T18:07:49.167Z,101777
2017-11-17T18:10:17.678Z,101762
2017-11-17T18:12:45.834Z,101767
2017-11-17T18:15:13.979Z,101759
2017-11-17T18:17:42.988Z,101763
2017-11-17T18:20:11.296Z,101751
2017-11-17T18:22:39.440Z,101753
2017-11-17T18:25:07.590Z,101751
2017-11-17T18:27:35.922Z,101753
2017-11-17T18:30:04.558Z,101750
2017-11-17T18:32:32.690Z,101741
2017-11-17T18:35:01.245Z,101739
2017-11-17T18:37:29.417Z,101733
2017-11-17T18:39:57.574Z,101743
2017-11-17T18:42:26.484Z,101741
2017-11-17T18:44:55.981Z,101739
2017-11-17T18:47:24.154Z,101726
2017-11-17T18:49:52.302Z,101732
2017-11-17T18:52:20.448Z,101735
2017-11-17T18:54:48.587Z,101728
2017-11-17T18:57:16.879Z,101733
2017-11-17T18:59:45.462Z,101723
2017-11-17T19:02:13.581Z,101727
2017-11-17T19:04:41.705Z,101732
2017-11-17T19:07:09.922Z,101726
2017-11-17T19:09:38.112Z,101717
2017-11-17T19:12:06.260Z,101717
2017-11-17T19:14:34.387Z,101711
2017-11-17T19:17:02.957Z,101701
2017-11-17T19:19:31.137Z,101697
2017-11-17T19:21:59.272Z,101700
2017-11-17T19:24:27.435Z,101700
2017-11-17T19:26:55.722Z,101696
2017-11-17T19:29:24.598Z,101694
2017-11-17T19:31:52.751Z,101695
2017-11-17T19:34:21.326Z,101692
2017-11-17T19:36:49.465Z,101688
2017-11-17T19:39:17.738Z,101695
2017-11-17T19:41:45.894Z,101711
2017-11-17T19:44:14.027Z,101698
2017-11-17T19:46:42.152Z,101695
2017-11-17T19:49:10.298Z,101696
2017-11-17T19:51:38.818Z,101684
2017-11-17T19:54:07.712Z,101687
2017-11-17T19:56:36.591Z,101685
2017-11-17T19:59:05.487Z,101679
2017-11-17T20:01:34.371Z,101666
2017-11-17T20:04:02.859Z,101667
2017-11-17T20:06:31.747Z,101665
2017-11-17T20:09:00.611Z,101672
2017-11-17T20:11:28.773Z,101663
2017-11-17T20:13:56.883Z,101667
2017-11-17T20:16:25.023Z,101655
2017-11-17T20:18:53.574Z,101662
2017-11-17T20:21:21.743Z,101662
2017-11-17T20:23:50.051Z,101653
2017-11-17T20:26:18.563Z,101658
2017-11-17T20:28:46.706Z,101657
2017-11-17T20:31:14.852Z,101660
2017-11-17T20:33:42.983Z,101651
2017-11-17T20:36:11.164Z,101653
2017-11-17T20:38:39.334Z,101651
2017-11-17T20:41:07.587Z,101636
2017-11-17T20:43:35.743Z,101634
2017-11-17T20:46:04.232Z,101636
2017-11-17T20:48:32.362Z,101631
2017-11-17T20:51:00.610Z,101624
2017-11-17T20:53:29.532Z,101620
2017-11-17T20:55:57.711Z,101615
2017-11-17T20:58:26.102Z,101629
2017-11-17T21:00:54.391Z,101614
2017-11-17T21:03:22.535Z,101615
2017-11-17T21:05:51.831Z,101609
2017-11-17T21:08:20.719Z,101617
2017-11-17T21:10:49.591Z,101617
2017-11-17T21:13:17.706Z,101613
2017-11-17T21:15:45.858Z,101628
2017-11-17T21:18:14.027Z,101605
2017-11-17T21:20:43.124Z,101607
2017-11-17T21:23:12.020Z,101620
2017-11-17T21:25:40.894Z,101615
2017-11-17T21:28:09.545Z,101615
2017-11-17T21:30:38.064Z,101609
2017-11-17T21:33:06.207Z,101598
2017-11-17T21:35:34.399Z,101592
2017-11-17T21:38:02.554Z,101602
2017-11-17T21:40:30.706Z,101595
2017-11-17T21:42:59.162Z,101595
2017-11-17T21:45:27.289Z,101595
2017-11-17T21:47:55.452Z,101600
2017-11-17T21:50:23.590Z,101595
2017-11-17T21:52:51.728Z,101584
2017-11-17T21:55:19.855Z,101586
2017-11-17T21:57:48.148Z,101585
2017-11-17T22:00:16.272Z,101582
2017-11-17T22:02:45.059Z,101570
2017-11-17T22:05:13.934Z,101562
2017-11-17T22:07:42.431Z,101555
2017-11-17T22:10:11.350Z,101557
2017-11-17T22:12:39.487Z,101560
2017-11-17T22:15:07.630Z,101549
2017-11-17T22:17:35.790Z,101546
2017-11-17T22:20:03.975Z,101551
2017-11-17T22:22:32.263Z,101547
2017-11-17T22:25:00.777Z,101543
2017-11-17T22:27:30.214Z,101540
2017-11-17T22:29:59.306Z,101537
2017-11-17T22:32:27.455Z,101534
2017-11-17T22:34:56.339Z,101530
2017-11-17T22:37:25.215Z,101530
2017-11-17T22:39:53.869Z,101529
2017-11-17T22:42:22.002Z,101528
2017-11-17T22:44:50.861Z,101524
2017-11-17T22:47:18.985Z,101527
2017-11-17T22:49:47.099Z,101522
2017-11-17T22:52:16.709Z,101522
2017-11-17T22:54:44.818Z,101522
2017-11-17T22:57:13.678Z,101513
2017-11-17T22:59:41.802Z,101512
2017-11-17T23:02:09.951Z,101514
2017-11-17T23:04:38.539Z,101516
2017-11-17T23:07:07.401Z,101509
2017-11-17T23:09:35.533Z,101509
2017-11-17T23:12:04.062Z,101501
2017-11-17T23:14:32.188Z,101500
2017-11-17T23:17:00.323Z,101494
2017-11-17T23:19:29.179Z,101491
2017-11-17T23:21:57.322Z,101501
2017-11-17T23:24:25.986Z,101493
2017-11-17T23:26:54.110Z,101494
2017-11-17T23:29:22.225Z,101491
2017-11-17T23:31:50.370Z,101486
2017-11-17T23:34:18.538Z,101488
2017-11-17T23:36:47.399Z,101486
2017-11-17T23:39:15.593Z,101477
2017-11-17T23:41:43.703Z,101478
2017-11-17T23:44:12.578Z,101476
2017-11-17T23:46:41.070Z,101474
2017-11-17T23:49:09.307Z,101472
2017-11-17T23:51:37.511Z,101466
2017-11-17T23:54:05.771Z,101451
2017-11-17T23:56:33.902Z,101447
2017-11-17T23:59:02.039Z,101441
